Time;durP1;ratioP1;P1;durP2;ratioP2;P2;SDS_P1;SDS_P2;PMS_P1;PMS_P2;Temp;Humidity;BMP_temperature;BMP_pressure;BME280_temperature;BME280_humidity;BME280_pressure;Samples;Min_cycle;Max_cycle;Signal;HPM_P1;HPM_P2
2023/04/14 00:00:38;;;;;;;12.30;2.70;;;;;;;;;;5114820;27;20043;-69
2023/04/14 00:03:04;;;;;;;9.15;2.42;;;;;;;;;;5133977;27;20046;-69
2023/04/14 00:05:31;;;;;;;7.68;2.25;;;;;;;;;;5095837;27;20050;-71
2023/04/14 00:07:57;;;;;;;7.70;2.50;;;;;;;;;;5115383;27;20031;-69
2023/04/14 00:10:24;;;;;;;10.85;2.60;;;;;;;;;;5097895;27;20077;-69
2023/04/14 00:12:50;;;;;;;9.48;2.40;;;;;;;;;;5098268;27;20041;-69
2023/04/14 00:15:17;;;;;;;10.02;2.95;;;;;;;;;;5114937;27;20429;-69
2023/04/14 00:17:43;;;;;;;15.30;2.80;;;;;;;;;;5115069;27;20031;-69
2023/04/14 00:20:09;;;;;;;8.50;2.95;;;;;;;;;;5114944;27;20121;-69
2023/04/14 00:22:35;;;;;;;6.10;2.30;;;;;;;;;;5115080;27;20041;-69
2023/04/14 00:25:01;;;;;;;14.75;3.47;;;;;;;;;;5114779;27;20547;-69
2023/04/14 00:27:28;;;;;;;12.60;2.63;;;;;;;;;;5114822;27;20063;-70
2023/04/14 00:29:54;;;;;;;15.68;2.70;;;;;;;;;;5115219;27;20099;-69
2023/04/14 00:32:20;;;;;;;11.48;2.47;;;;;;;;;;5114896;27;20035;-71
2023/04/14 00:34:46;;;;;;;10.38;2.80;;;;;;;;;;5114614;27;20099;-70
2023/04/14 00:37:12;;;;;;;10.23;3.20;;;;;;;;;;5098031;27;20031;-70
2023/04/14 00:39:38;;;;;;;12.80;2.45;;;;;;;;;;5097608;28;20046;-69
2023/04/14 00:42:05;;;;;;;10.85;3.03;;;;;;;;;;5098257;27;20492;-69
2023/04/14 00:44:31;;;;;;;12.95;2.80;;;;;;;;;;5114460;27;20051;-70
2023/04/14 00:46:58;;;;;;;14.52;2.70;;;;;;;;;;5098266;28;20031;-70
2023/04/14 00:49:24;;;;;;;14.63;3.33;;;;;;;;;;5114467;28;20039;-69
2023/04/14 00:51:51;;;;;;;10.15;2.40;;;;;;;;;;5114832;28;20394;-70
2023/04/14 00:54:17;;;;;;;13.10;3.63;;;;;;;;;;5114956;28;20487;-70
2023/04/14 00:56:44;;;;;;;9.73;2.83;;;;;;;;;;5114814;28;20039;-69
2023/04/14 00:59:11;;;;;;;10.07;2.67;;;6.40;99.90;;;;;;5098037;28;20112;-70
2023/04/14 01:01:39;;;;;;;8.65;2.90;;;6.20;99.90;;;;;;5114808;28;20049;-70
2023/04/14 01:04:05;;;;;;;15.38;3.38;;;;;;;;;;5114576;28;20095;-70
2023/04/14 01:06:32;;;;;;;14.50;3.58;;;5.60;99.90;;;;;;5114497;28;20498;-70
2023/04/14 01:08:59;;;;;;;12.10;3.13;;;;;;;;;;5114671;28;20117;-70
2023/04/14 01:11:54;;;;;;;11.60;2.92;;;6.40;99.90;;;;;;5097363;27;20043;-70
2023/04/14 01:14:51;;;;;;;12.50;2.47;;;6.30;99.90;;;;;;5133807;27;20038;-70
2023/04/14 01:17:36;;;;;;;8.57;2.67;;;;;;;;;;5116754;27;20109;-70
2023/04/14 01:20:26;;;;;;;11.55;2.78;;;6.50;99.90;;;;;;5118648;27;20126;-70
2023/04/14 01:23:03;;;;;;;10.40;3.30;;;6.50;99.90;;;;;;5118056;27;20058;-70
2023/04/14 01:25:29;;;;;;;10.57;3.50;;;;;;;;;;5118542;27;20062;-70
2023/04/14 01:28:27;;;;;;;13.40;3.08;;;;;;;;;;5114873;27;20049;-68
2023/04/14 01:30:54;;;;;;;8.65;2.90;;;;;;;;;;5047664;27;20411;-69
2023/04/14 01:33:22;;;;;;;8.15;3.03;;;6.00;99.90;;;;;;5101735;27;20440;-69
2023/04/14 01:36:01;;;;;;;12.63;3.28;;;6.20;99.90;;;;;;5115661;27;20046;-69
2023/04/14 01:38:31;;;;;;;10.30;3.33;;;6.00;99.90;;;;;;5117999;27;20092;-69
2023/04/14 01:41:04;;;;;;;12.57;2.95;;;5.90;99.90;;;;;;5118170;27;20046;-69
2023/04/14 01:43:31;;;;;;;15.45;4.55;;;;;;;;;;5118494;27;20562;-69
2023/04/14 01:46:00;;;;;;;12.85;3.88;;;;;;;;;;5118339;27;20126;-69
2023/04/14 01:48:26;;;;;;;8.98;3.88;;;5.90;99.90;;;;;;5118093;27;20074;-70
2023/04/14 01:50:54;;;;;;;12.70;3.42;;;5.80;99.90;;;;;;5118045;27;20517;-69
2023/04/14 01:53:23;;;;;;;14.75;3.50;;;6.00;99.90;;;;;;5134699;27;20079;-69
2023/04/14 01:55:50;;;;;;;12.77;4.75;;;5.90;99.90;;;;;;5117940;27;20043;-68
2023/04/14 01:58:17;;;;;;;11.38;3.88;;;;;;;;;;5117958;27;20372;-69
2023/04/14 02:00:43;;;;;;;11.95;3.42;;;;;;;;;;5101308;27;20042;-69
2023/04/14 02:03:10;;;;;;;11.98;3.92;;;;;;;;;;5115230;27;20054;-69
2023/04/14 02:05:38;;;;;;;12.32;3.50;;;5.60;99.90;;;;;;5118041;27;20368;-69
2023/04/14 02:08:10;;;;;;;12.30;3.88;;;;;;;;;;5100627;27;20407;-69
2023/04/14 02:10:37;;;;;;;16.53;3.37;;;;;;;;;;5117772;27;20039;-69
2023/04/14 02:13:05;;;;;;;10.50;2.90;;;5.60;99.90;;;;;;5100588;27;20501;-69
2023/04/14 02:15:32;;;;;;;12.05;3.88;;;5.60;99.90;;;;;;5117785;27;20039;-69
2023/04/14 02:17:58;;;;;;;14.32;3.10;;;;;;;;;;5117445;27;20031;-69
2023/04/14 02:20:26;;;;;;;9.60;3.78;;;5.40;99.90;;;;;;5115320;27;20031;-68
2023/04/14 02:22:53;;;;;;;9.00;3.25;;;;;;;;;;5117555;27;20045;-69
2023/04/14 02:25:22;;;;;;;9.55;3.00;;;5.60;99.90;;;;;;5116988;27;20038;-69
2023/04/14 02:27:51;;;;;;;15.20;3.30;;;;;;;;;;5134954;27;20550;-69
2023/04/14 02:30:21;;;;;;;8.43;2.78;;;;;;;;;;5117212;27;20031;-69
2023/04/14 02:32:52;;;;;;;10.70;3.30;;;5.50;99.90;;;;;;5117066;27;20046;-69
2023/04/14 02:35:25;;;;;;;10.70;2.95;;;5.50;99.90;;;;;;5133202;27;20031;-70
2023/04/14 02:37:59;;;;;;;8.88;3.08;;;5.20;99.90;;;;;;5117392;27;20043;-70
2023/04/14 02:40:29;;;;;;;10.35;3.10;;;5.50;99.90;;;;;;5117197;27;20034;-70
2023/04/14 02:42:57;;;;;;;10.32;3.33;;;;;;;;;;5117313;27;20053;-70
2023/04/14 02:45:25;;;;;;;12.02;2.70;;;;;;;;;;5132938;27;20134;-70
2023/04/14 02:47:55;;;;;;;9.07;3.45;;;5.50;99.90;;;;;;5100260;27;20076;-70
2023/04/14 02:50:22;;;;;;;10.75;3.00;;;5.40;99.90;;;;;;5117045;27;20106;-70
2023/04/14 02:52:51;;;;;;;8.80;2.95;;;5.30;99.90;;;;;;5114132;27;20130;-70
2023/04/14 02:55:19;;;;;;;8.70;2.90;;;5.10;99.90;;;;;;5116437;27;20039;-69
2023/04/14 02:57:47;;;;;;;9.85;2.45;;;;;;;;;;5116764;27;20038;-70
2023/04/14 03:00:14;;;;;;;9.45;3.20;;;6.10;99.90;;;;;;5114160;27;20039;-70
2023/04/14 03:02:43;;;;;;;10.57;3.22;;;;;;;;;;5099617;27;20046;-70
2023/04/14 03:05:10;;;;;;;10.60;3.08;;;5.20;99.90;;;;;;5116594;27;20072;-70
2023/04/14 03:07:37;;;;;;;14.48;3.47;;;;;;;;;;5116195;27;20039;-70
2023/04/14 03:10:04;;;;;;;7.72;3.05;;;;;;;;;;5116431;27;20035;-70
2023/04/14 03:12:30;;;;;;;8.95;2.45;;;;;;;;;;5116222;27;20087;-70
2023/04/14 03:14:58;;;;;;;11.85;2.83;;;5.30;99.90;;;;;;5116544;27;20122;-70
2023/04/14 03:17:24;;;;;;;12.70;2.58;;;;;;;;;;5099490;27;20031;-70
2023/04/14 03:19:51;;;;;;;11.38;3.15;;;5.10;99.90;;;;;;5113818;27;20280;-70
2023/04/14 03:22:19;;;;;;;10.38;3.10;;;5.30;99.90;;;;;;5099202;27;20444;-70
2023/04/14 03:24:46;;;;;;;11.88;2.90;;;;;;;;;;5116459;27;20459;-70
2023/04/14 03:27:21;;;;;;;9.63;2.80;;;5.20;99.90;;;;;;5116257;27;20035;-70
2023/04/14 03:29:50;;;;;;;8.60;2.88;;;;;;;;;;5116446;27;20114;-70
2023/04/14 03:32:17;;;;;;;10.52;2.63;;;5.10;99.90;;;;;;5098710;27;20071;-70
2023/04/14 03:34:46;;;;;;;7.05;2.80;;;5.10;99.90;;;;;;5115575;27;20034;-70
2023/04/14 03:37:15;;;;;;;6.85;2.72;;;;;;;;;;5115914;27;20035;-70
2023/04/14 03:39:42;;;;;;;9.45;3.63;;;5.00;99.90;;;;;;5115666;27;20043;-70
2023/04/14 03:42:08;;;;;;;11.25;3.15;;;;;;;;;;5098766;27;20035;-70
2023/04/14 03:44:35;;;;;;;10.88;3.15;;;;;;;;;;5115756;27;20050;-70
2023/04/14 03:47:02;;;;;;;6.55;2.60;;;;;;;;;;5115672;27;20407;-69
2023/04/14 03:55:20;;;;;;;10.40;2.90;;;;;;;;;;5395376;23;20431;31
2023/04/14 03:57:47;;;;;;;17.00;3.10;;;;;;;;;;5359056;23;20285;-75
2023/04/14 04:00:14;;;;;;;10.05;3.05;;;4.30;99.90;;;;;;4900170;29;20131;-69
2023/04/14 04:02:44;;;;;;;11.15;2.70;;;5.10;99.90;;;;;;4900851;29;20111;-69
2023/04/14 04:05:10;;;;;;;8.10;3.33;;;;;;;;;;4900268;29;20083;-69
2023/04/14 04:07:39;;;;;;;10.32;3.10;;;5.20;99.90;;;;;;4885043;29;20496;-69
2023/04/14 04:10:06;;;;;;;11.18;2.83;;;5.00;99.90;;;;;;4917355;29;20369;-69
2023/04/14 04:12:32;;;;;;;7.60;2.83;;;;;;;;;;4900268;29;20056;-69
2023/04/14 04:14:59;;;;;;;14.13;3.00;;;;;;;;;;4900495;29;20036;-70
2023/04/14 04:17:25;;;;;;;10.10;3.10;;;;;;;;;;4900881;29;20130;-69
2023/04/14 04:19:53;;;;;;;10.25;2.97;;;5.30;99.90;;;;;;4900139;29;20115;-69
2023/04/14 04:22:20;;;;;;;10.95;3.20;;;;;;;;;;4885305;29;20055;-69
2023/04/14 04:24:46;;;;;;;10.82;3.25;;;;;;;;;;4898683;29;20063;-69
2023/04/14 04:27:13;;;;;;;10.68;3.40;;;;;;;;;;4900451;29;20048;-69
2023/04/14 04:29:39;;;;;;;9.50;3.05;;;;;;;;;;4900516;29;20071;-69
2023/04/14 04:32:06;;;;;;;7.72;3.20;;;;;;;;;;4899968;29;20400;-69
2023/04/14 04:34:33;;;;;;;10.77;2.83;;;5.20;99.90;;;;;;4900090;29;20044;-69
2023/04/14 04:37:02;;;;;;;11.02;3.15;;;5.40;99.90;;;;;;4884652;29;20127;-69
2023/04/14 04:39:29;;;;;;;13.88;3.90;;;;;;;;;;4900201;29;20103;-69
2023/04/14 04:42:05;;;;;;;13.18;3.38;;;5.50;99.90;;;;;;4917016;29;20048;-69
2023/04/14 04:44:32;;;;;;;11.60;3.88;;;5.40;99.90;;;;;;4902075;29;20044;-69
2023/04/14 04:46:59;;;;;;;12.20;3.17;;;;;;;;;;4916662;29;20059;-69
2023/04/14 04:49:25;;;;;;;11.52;3.50;;;;;;;;;;4917140;29;20171;-69
2023/04/14 04:51:51;;;;;;;7.18;3.08;;;;;;;;;;4899739;29;20054;-69
2023/04/14 04:54:17;;;;;;;15.70;4.03;;;;;;;;;;4916822;29;20040;-69
2023/04/14 04:56:43;;;;;;;10.18;3.72;;;;;;;;;;4899534;29;20044;-69
2023/04/14 04:59:10;;;;;;;11.73;3.80;;;;;;;;;;4895992;29;20048;-69
2023/04/14 05:01:36;;;;;;;10.45;3.75;;;;;;;;;;4899715;29;20048;-69
2023/04/14 05:04:02;;;;;;;7.85;3.28;;;;;;;;;;4886423;29;20052;-69
2023/04/14 05:06:28;;;;;;;8.32;3.50;;;;;;;;;;4888811;29;20086;-69
2023/04/14 05:08:55;;;;;;;6.25;3.42;;;;;;;;;;4900310;29;20044;-70
2023/04/14 05:11:21;;;;;;;8.70;3.10;;;;;;;;;;4916761;29;20063;-70
2023/04/14 05:13:47;;;;;;;11.90;3.30;;;;;;;;;;4896235;29;20124;-70
2023/04/14 05:16:14;;;;;;;9.48;3.42;;;5.20;99.90;;;;;;4881158;29;20037;-70
2023/04/14 05:18:40;;;;;;;12.27;3.63;;;;;;;;;;4866011;29;20036;-70
2023/04/14 05:21:11;;;;;;;9.18;3.50;;;;;;;;;;4881230;29;20040;-70
2023/04/14 05:23:39;;;;;;;8.77;3.00;;;5.30;99.90;;;;;;4881466;29;20044;-70
2023/04/14 05:26:05;;;;;;;7.25;3.50;;;;;;;;;;4871175;29;20044;-70
2023/04/14 05:28:32;;;;;;;10.55;3.35;;;;;;;;;;4916900;29;20051;-70
2023/04/14 05:30:58;;;;;;;10.20;3.33;;;;;;;;;;4887742;29;20052;-70
2023/04/14 05:33:24;;;;;;;9.02;3.35;;;;;;;;;;4883702;29;20044;-70
2023/04/14 05:35:50;;;;;;;10.18;3.30;;;;;;;;;;4879833;29;20135;-70
2023/04/14 05:38:18;;;;;;;10.15;4.00;;;;;;;;;;4894566;29;20039;-70
2023/04/14 05:40:45;;;;;;;12.60;4.18;;;;;;;;;;4916626;29;20082;-70
2023/04/14 05:43:11;;;;;;;9.82;3.30;;;;;;;;;;4899601;29;20047;-70
2023/04/14 05:45:37;;;;;;;9.85;3.20;;;;;;;;;;4899100;29;20051;-70
2023/04/14 05:48:03;;;;;;;11.65;3.25;;;;;;;;;;4884480;29;20052;-70
2023/04/14 05:50:29;;;;;;;13.55;3.35;;;;;;;;;;4893664;29;20551;-69
2023/04/14 05:52:56;;;;;;;15.50;3.75;;;;;;;;;;4912202;29;20400;-70
2023/04/14 05:55:22;;;;;;;10.25;3.33;;;;;;;;;;4898300;29;20045;-69
2023/04/14 05:57:48;;;;;;;10.52;3.67;;;;;;;;;;4895406;29;20056;-69
2023/04/14 06:00:14;;;;;;;12.13;3.42;;;;;;;;;;4887592;29;20048;-69
2023/04/14 06:02:41;;;;;;;11.73;3.88;;;;;;;;;;4884211;29;20048;-69
2023/04/14 06:05:07;;;;;;;11.50;3.38;;;6.50;99.90;;;;;;4885891;29;20060;-69
2023/04/14 06:07:34;;;;;;;7.22;3.90;;;;;;;;;;4919913;29;20044;-69
2023/04/14 06:10:00;;;;;;;10.07;3.60;;;;;;;;;;4901131;29;20048;-69
2023/04/14 06:12:27;;;;;;;10.10;3.30;;;;;;;;;;4891502;29;20480;-69
2023/04/14 06:14:53;;;;;;;11.57;3.45;;;;;;;;;;4902780;29;20051;-69
2023/04/14 06:17:20;;;;;;;7.07;3.40;;;;;;;;;;4902701;29;20040;-69
2023/04/14 06:19:47;;;;;;;9.13;3.60;;;;;;;;;;4902307;29;20044;-69
2023/04/14 06:22:20;;;;;;;14.27;3.75;;;5.60;99.90;;;;;;4887025;29;20099;-69
2023/04/14 06:24:46;;;;;;;14.95;4.05;;;;;;;;;;4886898;29;20056;-69
2023/04/14 06:27:12;;;;;;;11.68;3.80;;;;;;;;;;4902184;29;20055;-69
2023/04/14 06:29:38;;;;;;;9.73;4.22;;;;;;;;;;4888905;29;20091;-69
2023/04/14 06:32:04;;;;;;;10.90;4.10;;;;;;;;;;4884593;29;20041;-69
2023/04/14 06:34:31;;;;;;;6.40;3.88;;;;;;;;;;4883693;29;20048;-69
2023/04/14 06:36:57;;;;;;;4.90;3.67;;;;;;;;;;4883432;29;20166;-69
2023/04/14 06:39:24;;;;;;;10.05;4.28;;;;;;;;;;4883486;29;20485;-69
2023/04/14 06:41:50;;;;;;;8.70;3.72;;;;;;;;;;4884397;29;20050;-69
2023/04/14 06:44:16;;;;;;;7.78;4.00;;;;;;;;;;4868176;29;20040;-69
2023/04/14 06:46:42;;;;;;;8.15;3.92;;;;;;;;;;4883187;29;20053;-69
2023/04/14 06:49:08;;;;;;;12.30;3.90;;;;;;;;;;4868185;29;20052;-68
2023/04/14 06:51:34;;;;;;;9.90;4.05;;;;;;;;;;4893728;29;20076;-68
2023/04/14 06:54:00;;;;;;;9.25;4.40;;;;;;;;;;4880527;29;20041;-69
2023/04/14 06:56:26;;;;;;;12.38;4.20;;;;;;;;;;4885288;29;20602;-69
2023/04/14 06:58:52;;;;;;;16.00;4.85;;;;;;;;;;4899411;29;20057;-68
2023/04/14 07:01:19;;;;;;;15.93;5.18;;;;;;;;;;4898750;29;20082;-69
2023/04/14 07:03:45;;;;;;;11.25;5.10;;;;;;;;;;4874421;29;20084;-69
2023/04/14 07:06:15;;;;;;;17.02;4.60;;;6.60;99.90;;;;;;4890686;29;20496;-69
2023/04/14 07:08:42;;;;;;;7.20;4.05;;;;;;;;;;4889976;29;20060;-69
2023/04/14 07:11:09;;;;;;;9.30;4.10;;;;;;;;;;4893384;29;20076;-69
2023/04/14 07:13:35;;;;;;;11.15;4.95;;;;;;;;;;4892750;29;20481;-68
2023/04/14 07:16:02;;;;;;;12.40;5.03;;;;;;;;;;4875261;29;20055;-69
2023/04/14 07:18:29;;;;;;;10.02;4.55;;;;;;;;;;4892592;29;20044;-69
2023/04/14 07:20:55;;;;;;;8.80;3.90;;;;;;;;;;4908428;29;20040;-68
2023/04/14 07:23:21;;;;;;;9.70;4.25;;;;;;;;;;4890682;29;20048;-69
2023/04/14 07:25:57;;;;;;;13.73;4.78;;;;;;;;;;4891575;29;20079;-69
2023/04/14 07:28:24;;;;;;;16.70;4.50;;;;;;;;;;4892759;29;20032;-69
2023/04/14 07:30:51;;;;;;;12.68;4.53;;;7.40;99.90;;;;;;4892333;29;20417;-71
2023/04/14 07:33:18;;;;;;;8.48;4.10;;;;;;;;;;4900948;29;20147;-70
2023/04/14 07:35:45;;;;;;;11.75;4.65;;;7.40;99.90;;;;;;4895616;29;20044;-70
2023/04/14 07:38:11;;;;;;;14.82;4.47;;;;;;;;;;4886234;29;20044;-71
2023/04/14 07:40:37;;;;;;;16.90;4.90;;;;;;;;;;4881859;29;20080;-70
2023/04/14 07:43:03;;;;;;;18.33;4.50;;;;;;;;;;4866176;29;20044;-70
2023/04/14 07:45:30;;;;;;;10.70;4.10;;;;;;;;;;4881391;29;20067;-70
2023/04/14 07:47:56;;;;;;;17.55;4.75;;;;;;;;;;4898049;29;20049;-70
2023/04/14 07:50:22;;;;;;;13.73;5.05;;;;;;;;;;4864783;29;20044;-70
2023/04/14 07:52:48;;;;;;;12.52;4.65;;;;;;;;;;4880790;29;20048;-70
2023/04/14 07:55:14;;;;;;;12.45;5.00;;;;;;;;;;4882204;29;20041;-70
2023/04/14 07:57:41;;;;;;;10.07;4.68;;;;;;;;;;4880154;29;20048;-70
2023/04/14 08:00:11;;;;;;;14.90;6.10;;;;;;;;;;4882282;29;20052;-70
2023/04/14 08:02:37;;;;;;;15.35;4.60;;;;;;;;;;4882383;29;20048;-70
2023/04/14 08:05:04;;;;;;;15.02;5.25;;;;;;;;;;4882457;29;20048;-70
2023/04/14 08:07:30;;;;;;;13.68;5.32;;;;;;;;;;4882406;29;20111;-70
2023/04/14 08:09:57;;;;;;;12.40;5.03;;;;;;;;;;4866755;29;20103;-70
2023/04/14 08:12:23;;;;;;;10.07;5.05;;;;;;;;;;4881021;29;20040;-70
2023/04/14 08:14:50;;;;;;;14.45;4.40;;;;;;;;;;4882307;29;20041;-69
2023/04/14 08:17:16;;;;;;;14.40;4.97;;;;;;;;;;4898613;29;20117;-69
2023/04/14 08:19:42;;;;;;;11.48;4.80;;;;;;;;;;4882328;29;20036;-69
2023/04/14 08:22:08;;;;;;;9.90;4.97;;;;;;;;;;4865895;29;20052;-69
2023/04/14 08:24:34;;;;;;;10.07;4.30;;;;;;;;;;4881930;29;20064;-69
2023/04/14 08:27:01;;;;;;;13.43;5.15;;;;;;;;;;4881638;29;20055;-69
2023/04/14 08:29:27;;;;;;;12.02;4.55;;;;;;;;;;4898501;29;20052;-70
2023/04/14 08:31:53;;;;;;;10.65;4.63;;;;;;;;;;4881392;29;20048;-70
2023/04/14 08:34:20;;;;;;;14.80;5.55;;;9.00;99.90;;;;;;4866426;29;20049;-70
2023/04/14 08:36:46;;;;;;;12.25;4.90;;;;;;;;;;4881738;29;20396;-69
2023/04/14 08:39:13;;;;;;;8.20;3.83;;;;;;;;;;4881704;29;20052;-69
2023/04/14 08:41:39;;;;;;;11.70;4.78;;;;;;;;;;4881199;29;20553;-69
2023/04/14 08:44:05;;;;;;;11.73;4.10;;;;;;;;;;4879859;29;20128;-70
2023/04/14 08:46:31;;;;;;;10.52;4.32;;;;;;;;;;4880115;29;20083;-70
2023/04/14 08:49:04;;;;;;;10.57;4.05;;;9.50;99.90;;;;;;4880386;29;20119;-70
2023/04/14 08:51:33;;;;;;;12.85;3.83;;;;;;;;;;4881628;29;20049;-69
2023/04/14 08:54:01;;;;;;;11.80;4.05;;;9.40;99.90;;;;;;4898117;29;20100;-69
2023/04/14 08:56:33;;;;;;;11.57;4.38;;;9.80;99.90;;;;;;4881325;29;20053;-69
2023/04/14 08:59:00;;;;;;;14.85;5.57;;;9.60;99.90;;;;;;4881440;29;20442;-69
2023/04/14 09:01:30;;;;;;;11.48;4.30;;;;;;;;;;4881295;29;20108;-70
2023/04/14 09:03:56;;;;;;;11.02;3.92;;;;;;;;;;4881179;29;20400;-69
2023/04/14 09:06:22;;;;;;;16.25;4.00;;;;;;;;;;4866225;29;20492;-71
2023/04/14 09:08:49;;;;;;;10.07;3.75;;;;;;;;;;4881472;29;20124;-70
2023/04/14 09:11:15;;;;;;;13.38;3.78;;;;;;;;;;4881085;29;20049;-70
2023/04/14 09:13:47;;;;;;;14.07;3.80;;;10.30;99.90;;;;;;4897938;29;20036;-70
2023/04/14 09:16:16;;;;;;;9.98;3.67;;;10.30;99.90;;;;;;4881487;29;20044;-70
2023/04/14 09:18:42;;;;;;;14.85;3.90;;;;;;;;;;4897787;29;20053;-70
2023/04/14 09:21:10;;;;;;;13.75;4.47;;;10.60;99.90;;;;;;4881520;29;20049;-71
2023/04/14 09:23:36;;;;;;;17.92;4.65;;;;;;;;;;4897759;29;20048;-71
2023/04/14 09:26:07;;;;;;;17.63;5.75;;;;;;;;;;4866086;29;20048;-71
2023/04/14 09:28:34;;;;;;;19.85;6.05;;;;;;;;;;4865634;29;20046;-71
2023/04/14 09:31:01;;;;;;;17.52;6.60;;;;;;;;;;4881162;29;20073;-71
2023/04/14 09:33:27;;;;;;;17.83;6.40;;;;;;;;;;4881865;29;20096;-70
2023/04/14 09:35:54;;;;;;;21.25;7.05;;;;;;;;;;4866430;29;20052;-70
2023/04/14 09:38:35;;;;;;;24.50;7.97;;;11.00;99.90;;;;;;4882777;29;20104;-70
2023/04/14 09:41:02;;;;;;;26.05;8.57;;;10.90;99.90;;;;;;4881636;29;20048;-70
2023/04/14 09:43:29;;;;;;;25.30;9.18;;;;;;;;;;4866034;29;20486;-70
2023/04/14 09:45:57;;;;;;;26.83;8.85;;;11.30;99.90;;;;;;4884409;29;20492;-70
2023/04/14 09:48:23;;;;;;;19.67;6.57;;;;;;;;;;4884315;29;20459;-70
2023/04/14 09:50:59;;;;;;;16.83;7.82;;;11.50;99.90;;;;;;4886668;29;20033;-70
2023/04/14 09:53:30;;;;;;;20.17;7.50;;;;;;;;;;4890244;29;20434;-71
2023/04/14 09:56:02;;;;;;;24.98;6.75;;;11.50;99.90;;;;;;4915449;29;20099;-69
2023/04/14 09:58:35;;;;;;;14.65;4.85;;;;;;;;;;4900913;29;20064;-70
2023/04/14 10:01:10;;;;;;;12.43;4.22;;;11.80;99.90;;;;;;4901762;29;20055;-70
2023/04/14 10:03:46;;;;;;;11.88;4.07;;;12.00;99.90;;;;;;4919997;29;20505;-70
2023/04/14 10:06:15;;;;;;;11.95;4.15;;;11.90;99.90;;;;;;4896736;29;20076;-69
2023/04/14 10:08:42;;;;;;;15.02;4.35;;;;;;;;;;4884572;29;20048;-70
2023/04/14 10:11:26;;;;;;;9.60;3.15;;;12.20;99.90;;;;;;4900975;29;20046;-68
2023/04/14 10:13:53;;;;;;;12.00;4.45;;;;;;;;;;4868757;29;20049;-68
2023/04/14 10:16:19;;;;;;;7.65;2.60;;;;;;;;;;4884441;29;20164;-69
2023/04/14 10:18:45;;;;;;;10.55;2.58;;;;;;;;;;4868551;29;20536;-70
2023/04/14 10:21:12;;;;;;;7.53;2.60;;;12.70;99.90;;;;;;4884365;29;20053;-70
2023/04/14 10:23:40;;;;;;;9.63;3.15;;;;;;;;;;4868596;29;20048;-70
2023/04/14 10:26:07;;;;;;;11.23;2.85;;;;;;;;;;4884243;29;20048;-70
2023/04/14 10:28:39;;;;;;;9.80;2.90;;;12.50;99.90;;;;;;4883824;29;20044;-70
2023/04/14 10:31:07;;;;;;;;;;;12.40;99.90;;;;;;4884386;29;20048;-70
2023/04/14 10:33:36;;;;;;;8.00;2.42;;;;;;;;;;4868351;29;19977;-69
2023/04/14 10:36:03;;;;;;;6.75;2.20;;;;;;;;;;4900545;29;20040;-70
2023/04/14 10:38:41;;;;;;;8.85;2.25;;;12.70;99.90;;;;;;4884008;29;20043;-70
2023/04/14 10:41:07;;;;;;;7.18;2.63;;;;;;;;;;4883614;29;20052;-68
2023/04/14 10:43:35;;;;;;;8.18;2.60;;;;;;;;;;4884890;29;20041;-69
2023/04/14 10:46:03;;;;;;;8.20;2.78;;;12.70;99.90;;;;;;4884517;29;20052;-69
2023/04/14 10:48:33;;;;;;;6.35;2.33;;;;;;;;;;4883647;29;20044;-68
2023/04/14 10:50:59;;;;;;;11.85;2.63;;;;;;;;;;4883404;29;20127;-68
2023/04/14 10:53:26;;;;;;;8.13;2.30;;;;;;;;;;4868040;29;20044;-67
2023/04/14 10:55:56;;;;;;;8.85;2.65;;;12.90;98.90;;;;;;4883163;29;20512;-68
2023/04/14 10:58:22;;;;;;;7.25;2.40;;;;;;;;;;4894922;29;20064;-68
2023/04/14 11:00:48;;;;;;;8.95;2.40;;;;;;;;;;4902022;29;20501;-68
2023/04/14 11:03:16;;;;;;;8.77;2.45;;;13.30;99.40;;;;;;4905441;29;20044;-68
2023/04/14 11:05:48;;;;;;;8.48;2.45;;;13.40;99.20;;;;;;4900057;29;20044;-68
2023/04/14 11:08:14;;;;;;;5.65;2.03;;;;;;;;;;4899759;29;20045;-68
2023/04/14 11:10:43;;;;;;;5.40;2.10;;;;;;;;;;4896786;29;20129;-69
2023/04/14 11:13:13;;;;;;;7.22;2.22;;;;;;;;;;4894115;29;20044;-68
2023/04/14 11:15:44;;;;;;;4.93;2.42;;;13.70;99.90;;;;;;4883484;29;20074;-68
2023/04/14 11:18:12;;;;;;;6.68;2.25;;;13.50;98.40;;;;;;4899656;29;20489;-68
2023/04/14 11:20:40;;;;;;;7.18;1.98;;;13.40;98.50;;;;;;4899924;29;20040;-68
2023/04/14 11:23:06;;;;;;;9.48;2.33;;;;;;;;;;4882531;29;20048;-68
2023/04/14 11:25:33;;;;;;;8.52;2.20;;;13.40;97.70;;;;;;4882933;29;20045;-68
2023/04/14 11:28:02;;;;;;;6.88;2.08;;;14.10;99.90;;;;;;4882769;29;20045;-68
2023/04/14 11:30:28;;;;;;;7.43;2.10;;;;;;;;;;4882891;29;20056;-69
2023/04/14 11:32:56;;;;;;;8.20;2.33;;;13.70;97.70;;;;;;4882503;29;20488;-69
2023/04/14 11:35:26;;;;;;;5.65;1.85;;;13.80;97.40;;;;;;4882407;29;20040;-69
2023/04/14 11:37:54;;;;;;;6.38;1.63;;;14.00;97.00;;;;;;4882520;29;20048;-69
2023/04/14 11:40:21;;;;;;;11.75;2.22;;;;;;;;;;4882221;29;20080;-74
2023/04/14 11:42:51;;;;;;;10.45;2.28;;;13.90;96.90;;;;;;4866849;29;20048;-69
2023/04/14 11:45:17;;;;;;;8.07;2.20;;;;;;;;;;4897264;29;20111;-69
2023/04/14 11:47:57;;;;;;;8.93;1.80;;;14.60;99.90;;;;;;4910408;29;20041;-69
2023/04/14 11:50:23;;;;;;;10.60;2.13;;;13.50;99.90;;;;;;4889242;29;20048;-69
2023/04/14 11:52:49;;;;;;;4.63;2.05;;;;;;;;;;4907260;29;20126;-70
2023/04/14 11:55:16;;;;;;;11.20;2.25;;;;;;;;;;4890380;29;20119;-69
2023/04/14 11:57:46;;;;;;;6.13;1.95;;;14.70;98.70;;;;;;4888979;29;20053;-70
2023/04/14 12:00:13;;;;;;;8.77;2.55;;;;;;;;;;4892495;29;20374;-69
2023/04/14 12:02:43;;;;;;;6.90;1.95;;;14.70;95.80;;;;;;4907071;29;20408;-69
2023/04/14 12:05:09;;;;;;;6.93;1.80;;;;;;;;;;4886269;29;20044;-69
2023/04/14 12:07:35;;;;;;;8.32;1.88;;;;;;;;;;4892001;29;20048;-68
2023/04/14 12:10:04;;;;;;;9.05;1.80;;;15.00;94.70;;;;;;4889648;29;20054;-68
2023/04/14 12:12:31;;;;;;;10.52;2.20;;;15.20;94.80;;;;;;4907282;29;20575;-68
2023/04/14 12:14:57;;;;;;;6.05;1.73;;;;;;;;;;4889981;29;20036;-68
2023/04/14 12:17:24;;;;;;;10.45;2.25;;;;;;;;;;4912105;29;20104;-68
2023/04/14 12:19:50;;;;;;;5.03;1.83;;;14.70;95.30;;;;;;4915829;29;20044;-67
2023/04/14 12:22:23;;;;;;;9.73;2.00;;;;;;;;;;4893267;29;20162;-68
2023/04/14 12:24:49;;;;;;;5.65;2.05;;;16.50;97.70;;;;;;4877944;29;20044;-67
2023/04/14 12:27:21;;;;;;;5.32;2.00;;;16.00;94.20;;;;;;4885504;29;20103;-68
2023/04/14 12:29:48;;;;;;;6.22;1.88;;;;;;;;;;4896452;29;20060;-69
2023/04/14 12:32:15;;;;;;;12.52;2.38;;;;;;;;;;4914030;29;20040;-68
2023/04/14 12:34:56;;;;;;;9.10;2.10;;;16.50;93.30;;;;;;4898400;29;20118;-68
2023/04/14 12:37:27;;;;;;;6.63;1.92;;;16.90;96.70;;;;;;4890135;29;20072;-68
2023/04/14 12:39:58;;;;;;;5.55;1.90;;;17.00;96.50;;;;;;4901918;29;20044;-68
2023/04/14 12:42:25;;;;;;;7.88;2.13;;;16.60;92.70;;;;;;4882639;29;20049;-68
2023/04/14 12:44:59;;;;;;;5.05;1.83;;;16.60;91.40;;;;;;4898659;29;20032;-69
2023/04/14 12:47:29;;;;;;;5.05;1.42;;;16.80;91.30;;;;;;4889837;29;20055;-68
2023/04/14 12:49:55;;;;;;;6.00;2.10;;;;;;;;;;4881539;29;20052;-68
2023/04/14 12:52:38;;;;;;;8.45;1.85;;;;;;;;;;4897169;29;20401;-68
2023/04/14 12:55:06;;;;;;;5.20;2.28;;;16.10;95.10;;;;;;4847694;29;20398;-70
2023/04/14 12:57:32;;;;;;;7.07;2.22;;;;;;;;;;4847313;29;20132;-69
2023/04/14 12:59:59;;;;;;;4.13;1.92;;;16.80;95.00;;;;;;4896719;29;20409;-70
2023/04/14 13:02:28;;;;;;;7.07;2.00;;;17.20;91.20;;;;;;4881311;29;20111;-69
2023/04/14 13:04:57;;;;;;;7.32;2.50;;;17.90;94.50;;;;;;4880996;29;20127;-69
2023/04/14 13:07:23;;;;;;;6.65;1.92;;;;;;;;;;4881650;29;20049;-69
2023/04/14 13:09:50;;;;;;;5.80;2.00;;;18.20;93.60;;;;;;4883972;29;20085;-69
2023/04/14 13:12:17;;;;;;;6.40;2.28;;;;;;;;;;4901763;29;20497;-69
2023/04/14 13:14:43;;;;;;;8.95;2.15;;;;;;;;;;4884871;29;20044;-69
2023/04/14 13:17:09;;;;;;;4.50;1.77;;;;;;;;;;4885216;29;20045;-69
2023/04/14 13:19:35;;;;;;;5.65;1.70;;;;;;;;;;4884281;29;20044;-70
2023/04/14 13:22:01;;;;;;;6.57;1.75;;;;;;;;;;4885064;29;20484;-69
2023/04/14 13:24:27;;;;;;;6.18;2.00;;;18.40;92.00;;;;;;4884739;29;20048;-69
2023/04/14 13:26:53;;;;;;;7.45;2.17;;;16.70;91.60;;;;;;4885006;29;20172;-70
2023/04/14 13:29:19;;;;;;;7.53;2.10;;;;;;;;;;4884579;29;20441;-70
2023/04/14 13:31:45;;;;;;;8.57;2.00;;;18.30;91.50;;;;;;4869331;29;20109;-70
2023/04/14 13:34:11;;;;;;;8.00;2.00;;;;;;;;;;4869154;29;20598;-70
2023/04/14 13:36:37;;;;;;;5.20;2.20;;;;;;;;;;4884859;29;20246;-70
2023/04/14 13:39:03;;;;;;;7.65;1.58;;;18.60;91.00;;;;;;4884446;29;20172;-70
2023/04/14 13:41:29;;;;;;;6.20;1.63;;;;;;;;;;4869200;29;20135;-70
2023/04/14 13:43:55;;;;;;;5.30;1.85;;;18.00;90.80;;;;;;4901456;29;20453;-70
2023/04/14 13:46:22;;;;;;;6.78;1.75;;;;;;;;;;4884620;29;20044;-70
2023/04/14 13:48:48;;;;;;;5.40;1.80;;;;;;;;;;4904636;29;20036;-70
2023/04/14 13:51:14;;;;;;;6.80;1.70;;;;;;;;;;4882183;29;20123;-70
2023/04/14 13:53:40;;;;;;;6.68;1.90;;;;;;;;;;4901094;29;20104;-70
2023/04/14 13:56:06;;;;;;;3.83;1.52;;;;;;;;;;4884521;29;20051;-70
2023/04/14 13:58:32;;;;;;;6.43;1.90;;;18.00;90.80;;;;;;4884024;29;20132;-70
2023/04/14 14:00:58;;;;;;;7.90;1.90;;;;;;;;;;4884153;29;20476;-70
2023/04/14 14:03:24;;;;;;;6.03;1.80;;;18.60;83.70;;;;;;4884455;29;20100;-70
2023/04/14 14:05:50;;;;;;;6.82;2.03;;;;;;;;;;4884144;29;20397;-70